Lyden, New Mexico
Current Conditions -  °F | °C
As of 10:15 AM on Thursday 18 Dec 2014 (Local Time) from KLAM Reporting Station
Clear Clear  
Wind Chill: 25°   Ceiling: Unl
Heat Index: 31°   Visibility: 10mi
Dew Point: 30°   Wind: 6mph
Humidity: 96%   Direction: 120°ESE
Pressure: 30.15"   Gusts: NA
Location:  36.1592°N, 105.984°W
Report Text: KLAM 181715Z AUTO 12005KT 10SM CLR 00/M01 A3015 RMK AO2 T10051010
Loading
Personal Weather Stations






























Interactive Weather Map New forecast layout! Learn more

10-Day Weather Forecast

Advertisements
Track Severe Weather on mobile